sim
Sign-in with your pilot id or email,
or register
Callsign
Passwort

Schedule Details

Flight Number: EWG1991
Departure: Palma de Mallorca Airport (LEPA) at 17:00
Arrival: Munich Airport (EDDM) at 19:10
Route: Eurowings Passenger Schedule. Enter filed route here before submitting Pirep.

Weather Information
Getting current METAR information for LEPA 250600Z 32010KT 290V010 9999 FEW020 24/13 Q1010 NOSIG
Getting current METAR information for EDDM 250550Z 18005KT 9999 -RA FEW030 13/11 Q1000 NOSIG

Schedule Frequency

Route Map